Wildwood Landing, Indiana
Current Conditions -  °F | °C
As of 10:55 AM on Monday 22 Dec 2014 (Local Time) from KANQ Reporting Station
Few Clouds Few Clouds  
Wind Chill: 20°   Ceiling: Unl
Heat Index: 28°   Visibility: 8mi
Dew Point: 16°   Wind: 9mph
Humidity: 59%   Direction: 100°E
Pressure: 29.98"   Gusts: NA
Location:  41.5814°N, 85.1996°W
Report Text: KANQ 221555Z AUTO 10008KT 8SM FEW100 M02/M09 A2998 RMK
Loading
Personal Weather Stations






























Interactive Weather Map New forecast layout! Learn more

10-Day Weather Forecast

Advertisements
Track Severe Weather on mobile